Dawsonville, GA

11:56 AM EDT on August 29, 2015 (GMT -0400)
Penguin Labs, Lake Lanier | | Change Station
CLOSE
Current Station
Personal Weather Station
Location: Dawsonville, GA
Elevation: 1109 ft
Nearby Weather Stations

Elev 1109 ft 34.34 °N, 84.00 °W | Updated 10 seconds ago

Mostly Cloudy
Mostly Cloudy
75.0 °F
Feels Like 75 °F
N
6.9
Wind Variable Wind from ENE
Gusts 6.9 mph

Today
High -- | Low -- °F
--% Chance of Precip.
Yesterday
High -- | Low -- °F
Precip. -- in
7:07 AM 8:06 PM
Full, 100% visible
Pressure 30.23 in
Visibility 10.0 miles
Clouds Scattered Clouds 1800 ft
Mostly Cloudy 2200 ft
Heat Index 75 °F
Dew Point 70 °F
Humidity 85%
Rainfall 0.00 in
Snow Depth Not available.
UV 5 out of 12
Pollen 8.00 out of 12
Air Quality Not available.
Flu Activity Not available.
METAR KGVL 291553Z AUTO 09007KT 10SM SCT018 BKN022 23/19 A3027 RMK AO2 SLP237 T02330194
Pressure 30.23 in
Visibility 10.0 miles
Clouds Scattered Clouds 1800 ft
Mostly Cloudy 2200 ft
Heat Index 75 °F
Dew Point 70 °F
Humidity 85%
Rainfall 0.00 in
Snow Depth Not available.
UV 5 out of 12
Pollen 8.00 out of 12
Air Quality Not available.
Flu Activity Not available.
METAR KGVL 291553Z AUTO 09007KT 10SM SCT018 BKN022 23/19 A3027 RMK AO2 SLP237 T02330194

10-Day Weather Forecast

×

Almanac

Astronomy

Aug. 29, 2015 Rise Set
Actual Time
Civil Twilight
Nautical Twilight
Astronomical Twilight
Moon
Length of Visible Light
Length of Day
Tomorrow will be .
, % of the Moon is Illuminated

Today's Extremes

State Highs State Lows

Community

WunderPhotos

Upload Photos

1,850,700 photos uploaded!

WunderBlogs® & News

Nearby

Air Quality

  Air Quality AQ Index Pollutant
Not available.

Snow Depth

Station Depth Elevation

Earthquake Activity

City Distance Mag. Time & Date
Minimum magnitude displayed is 2.5.

Coastal Water Temperatures

Place Temperature

Stations

Nearby Weather Stations

Station Location Temp. Windchill Dew Point Humidity Wind Precip. Elev Updated Type